createdAt,value
2024-02-24T00:02:09.173Z,27.1
2024-02-24T00:07:35.160Z,26.1
2024-02-24T00:13:13.925Z,26.1
2024-02-24T00:18:52.981Z,27.1
2024-02-24T00:24:32.855Z,26.9
2024-02-24T00:30:11.765Z,25.7
2024-02-24T00:35:51.348Z,27.1
2024-02-24T00:41:14.559Z,27.1
2024-02-24T00:46:53.301Z,25.8
2024-02-24T00:52:32.505Z,26.7
2024-02-24T00:57:56.020Z,27.1
2024-02-24T01:03:34.958Z,26.8
2024-02-24T01:09:14.194Z,25.8
2024-02-24T01:14:37.642Z,27.1
2024-02-24T01:20:17.473Z,27
2024-02-24T01:25:56.366Z,25.7
2024-02-24T01:31:34.615Z,26.6
2024-02-24T01:37:14.085Z,27.2
2024-02-24T01:42:52.778Z,26.9
2024-02-24T01:48:31.734Z,25.6
2024-02-24T01:54:10.140Z,27
2024-02-24T01:59:49.058Z,27
2024-02-24T02:05:12.755Z,26.1
2024-02-24T02:10:37.412Z,26.2
2024-02-24T02:16:16.498Z,27.1
2024-02-24T02:21:24.878Z,26.9
2024-02-24T02:26:32.691Z,25.6
2024-02-24T02:32:11.180Z,26.6
2024-02-24T02:37:52.597Z,27.1
2024-02-24T02:43:30.990Z,26.8
2024-02-24T02:49:19.025Z,25.7
2024-02-24T02:54:57.638Z,27.1
2024-02-24T03:00:37.048Z,27
2024-02-24T03:06:00.852Z,26.3
2024-02-24T03:11:12.020Z,25.8
2024-02-24T03:16:20.152Z,27.1
2024-02-24T03:21:59.584Z,26.9
2024-02-24T03:27:38.004Z,26.3
2024-02-24T03:33:17.066Z,25.9
2024-02-24T03:38:56.175Z,27.1
2024-02-24T03:44:34.661Z,26.9
2024-02-24T03:49:43.554Z,25.8
2024-02-24T03:55:22.348Z,26.3
2024-02-24T04:01:01.298Z,27.1
2024-02-24T04:06:40.264Z,26.8
2024-02-24T04:12:19.923Z,25.6
2024-02-24T04:17:59.050Z,26.6
2024-02-24T04:23:38.147Z,27
2024-02-24T04:29:16.853Z,26.6
2024-02-24T04:34:56.061Z,25.6
2024-02-24T04:40:35.568Z,26.9
2024-02-24T04:45:58.641Z,27
2024-02-24T04:51:22.854Z,26.6
2024-02-24T04:56:45.909Z,25.6
2024-02-24T05:02:09.212Z,27
2024-02-24T05:07:32.652Z,27
2024-02-24T05:12:56.585Z,26.6
2024-02-24T05:18:20.807Z,25.6
2024-02-24T05:23:28.724Z,27
2024-02-24T05:28:54.462Z,27
2024-02-24T05:34:22.511Z,26.6
2024-02-24T05:39:46.840Z,25.6
2024-02-24T05:45:10.617Z,26.2
2024-02-24T05:50:34.303Z,26
2024-02-24T05:56:15.595Z,25.7
2024-02-24T06:01:54.191Z,25.4
2024-02-24T06:07:34.280Z,25
2024-02-24T06:13:13.038Z,24.7
2024-02-24T06:18:51.935Z,24.4
2024-02-24T06:24:33.747Z,24
2024-02-24T06:29:56.492Z,23.6
2024-02-24T06:35:35.947Z,23.3
2024-02-24T06:41:26.541Z,23.1
2024-02-24T06:47:13.768Z,22.8
2024-02-24T06:52:44.835Z,24.1
2024-02-24T06:58:26.194Z,25.4
2024-02-24T07:04:05.076Z,25.6
2024-02-24T07:09:44.240Z,25.4
2024-02-24T07:15:24.066Z,25.1
2024-02-24T07:21:03.930Z,24.8
2024-02-24T07:26:45.200Z,24.6
2024-02-24T07:32:25.301Z,24.3
2024-02-24T07:37:35.537Z,23.9
2024-02-24T07:43:16.370Z,23.6
2024-02-24T07:48:39.581Z,23.3
2024-02-24T07:54:18.865Z,23
2024-02-24T07:59:57.320Z,23.6
2024-02-24T08:05:37.422Z,24.6
2024-02-24T08:11:18.246Z,25.5
2024-02-24T08:16:42.038Z,25.4
2024-02-24T08:22:06.027Z,25.1
2024-02-24T08:27:44.530Z,24.9
2024-02-24T08:33:23.199Z,24.6
2024-02-24T08:38:47.858Z,24.4
2024-02-24T08:44:11.037Z,24.1
2024-02-24T08:49:49.845Z,23.8
2024-02-24T08:55:42.584Z,23.5
2024-02-24T09:01:21.091Z,23.2
2024-02-24T09:07:03.046Z,23.4
2024-02-24T09:12:42.576Z,24.8
2024-02-24T09:18:21.457Z,25.5
2024-02-24T09:23:45.334Z,25.3
2024-02-24T09:29:23.833Z,25.1
2024-02-24T09:35:03.638Z,24.9
2024-02-24T09:40:42.794Z,24.6
2024-02-24T09:46:05.732Z,24.4
2024-02-24T09:51:47.020Z,24.1
2024-02-24T09:57:25.885Z,23.8
2024-02-24T10:02:49.400Z,23.5
2024-02-24T10:08:32.321Z,23.3
2024-02-24T10:13:56.696Z,23.3
2024-02-24T10:19:05.049Z,25
2024-02-24T10:24:29.310Z,25.4
2024-02-24T10:30:10.635Z,25.3
2024-02-24T10:35:53.138Z,25.1
2024-02-24T10:42:03.756Z,24.9
2024-02-24T10:47:56.036Z,24.6
2024-02-24T10:53:36.559Z,24.3
2024-02-24T10:59:00.316Z,24
2024-02-24T11:04:39.521Z,23.8
2024-02-24T11:10:04.595Z,23.4
2024-02-24T11:15:53.959Z,23.1
2024-02-24T11:21:22.011Z,23.2
2024-02-24T11:27:00.717Z,24.5
2024-02-24T11:32:39.406Z,25.4
2024-02-24T11:38:19.464Z,25.3
2024-02-24T11:43:58.915Z,25.1
2024-02-24T11:49:39.278Z,24.8
2024-02-24T11:55:20.886Z,24.6
2024-02-24T12:00:59.592Z,24.4
2024-02-24T12:06:07.970Z,24.1
2024-02-24T12:11:50.807Z,23.8
2024-02-24T12:17:28.952Z,23.5
2024-02-24T12:23:09.772Z,23.2
2024-02-24T12:28:48.307Z,22.8
2024-02-24T12:34:28.173Z,23.2
2024-02-24T12:40:06.939Z,25.1
2024-02-24T12:45:45.993Z,25.3
2024-02-24T12:51:34.576Z,25.1
2024-02-24T12:57:13.231Z,24.9
2024-02-24T13:02:54.778Z,24.6
2024-02-24T13:08:34.341Z,24.4
2024-02-24T13:14:14.177Z,24.1
2024-02-24T13:19:38.248Z,23.8
2024-02-24T13:25:16.610Z,23.6
2024-02-24T13:30:42.982Z,23.3
2024-02-24T13:36:22.885Z,23
2024-02-24T13:42:00.966Z,23
2024-02-24T13:47:39.811Z,24.1
2024-02-24T13:53:19.940Z,25.2
2024-02-24T13:58:58.683Z,25.1
2024-02-24T14:04:38.589Z,25
2024-02-24T14:10:19.063Z,24.8
2024-02-24T14:16:01.232Z,24.5
2024-02-24T14:21:53.387Z,24.3
2024-02-24T14:27:35.150Z,23.9
2024-02-24T14:33:27.425Z,23.7
2024-02-24T14:39:09.713Z,23.4
2024-02-24T14:44:48.674Z,23.1
2024-02-24T14:50:28.311Z,22.8
2024-02-24T14:55:53.072Z,22.9
2024-02-24T15:01:16.766Z,24.8
2024-02-24T15:07:07.302Z,25.2
2024-02-24T15:12:46.291Z,25.1
2024-02-24T15:18:32.758Z,24.8
2024-02-24T15:23:57.953Z,24.6
2024-02-24T15:29:41.330Z,24.3
2024-02-24T15:35:21.269Z,24.1
2024-02-24T15:40:59.331Z,23.8
2024-02-24T15:46:38.785Z,23.5
2024-02-24T15:52:18.357Z,23.3
2024-02-24T15:57:57.282Z,22.9
2024-02-24T16:03:38.587Z,22.9
2024-02-24T16:09:21.024Z,23.5
2024-02-24T16:14:59.415Z,25
2024-02-24T16:20:41.704Z,25.1
2024-02-24T16:26:20.264Z,24.9
2024-02-24T16:31:43.308Z,24.7
2024-02-24T16:37:27.118Z,24.4
2024-02-24T16:43:06.043Z,24.2
2024-02-24T16:48:45.338Z,23.9
2024-02-24T16:54:10.268Z,23.7
2024-02-24T16:59:49.421Z,23.4
2024-02-24T17:05:28.686Z,23.1
2024-02-24T17:10:52.099Z,22.8
2024-02-24T17:16:01.814Z,22.6
2024-02-24T17:21:48.822Z,23.1
2024-02-24T17:27:28.022Z,24.9
2024-02-24T17:33:07.159Z,25.1
2024-02-24T17:38:31.495Z,24.9
2024-02-24T17:44:09.968Z,24.7
2024-02-24T17:49:49.572Z,24.4
2024-02-24T17:55:28.237Z,24.2
2024-02-24T18:01:03.508Z,23.9
2024-02-24T18:06:43.426Z,23.6
2024-02-24T18:12:06.429Z,23.4
2024-02-24T18:17:32.473Z,23.1
2024-02-24T18:22:59.920Z,22.8
2024-02-24T18:28:07.138Z,22.4
2024-02-24T18:33:46.491Z,22.8
2024-02-24T18:39:26.783Z,24.8
2024-02-24T18:44:53.179Z,25
2024-02-24T18:50:32.993Z,24.9
2024-02-24T18:56:12.077Z,24.6
2024-02-24T19:01:50.656Z,24.4
2024-02-24T19:07:14.453Z,24.2
2024-02-24T19:12:38.276Z,23.9
2024-02-24T19:18:05.235Z,23.7
2024-02-24T19:23:45.622Z,23.4
2024-02-24T19:29:26.765Z,23.1
2024-02-24T19:35:06.391Z,22.8
2024-02-24T19:40:59.889Z,22.5
2024-02-24T19:46:42.987Z,22.3
2024-02-24T19:52:22.679Z,22.5
2024-02-24T19:57:45.741Z,24.6
2024-02-24T20:03:48.316Z,24.9
2024-02-24T20:09:28.801Z,24.8
2024-02-24T20:14:51.982Z,24.6
2024-02-24T20:20:32.170Z,24.4
2024-02-24T20:26:10.193Z,24.1
2024-02-24T20:31:49.938Z,23.9
2024-02-24T20:37:23.177Z,23.6
2024-02-24T20:43:02.653Z,23.3
2024-02-24T20:48:41.057Z,23.1
2024-02-24T20:54:04.843Z,22.8
2024-02-24T20:59:43.592Z,22.4
2024-02-24T21:05:24.206Z,23.1
2024-02-24T21:11:05.431Z,25.1
2024-02-24T21:16:44.557Z,25.9
2024-02-24T21:22:27.862Z,25.4
2024-02-24T21:28:07.000Z,26.3
2024-02-24T21:33:50.280Z,25.8
2024-02-24T21:39:29.663Z,25.1
2024-02-24T21:45:07.926Z,26.3
2024-02-24T21:50:48.152Z,26.4
2024-02-24T21:56:27.005Z,24.7
2024-02-24T22:02:06.227Z,26.1
2024-02-24T22:07:46.170Z,26.6
2024-02-24T22:13:25.341Z,26.4
2024-02-24T22:19:08.253Z,24.7
2024-02-24T22:24:48.650Z,26.3
2024-02-24T22:30:41.980Z,26.6
2024-02-24T22:36:23.618Z,26.3
2024-02-24T22:41:47.160Z,24.7
2024-02-24T22:47:26.042Z,25.9
2024-02-24T22:53:06.123Z,26.7
2024-02-24T22:58:33.684Z,26.5
2024-02-24T23:03:57.220Z,26.1
2024-02-24T23:09:21.006Z,24.8
2024-02-24T23:14:55.263Z,26.4
2024-02-24T23:20:19.376Z,26.7
2024-02-24T23:25:58.224Z,26.4
2024-02-24T23:31:36.976Z,25.9
2024-02-24T23:37:18.345Z,24.9
2024-02-24T23:43:01.801Z,26.7
2024-02-24T23:48:41.047Z,26.8
2024-02-24T23:54:19.909Z,26.4
2024-02-24T23:59:58.759Z,25.8
